createdAt,value
2019-01-26T00:01:47.349Z,-2.90
2019-01-26T00:11:52.684Z,-3.00
2019-01-26T00:21:58.991Z,-2.70
2019-01-26T00:32:04.534Z,-2.60
2019-01-26T00:42:09.816Z,-2.60
2019-01-26T00:52:15.407Z,-2.40
2019-01-26T01:02:20.712Z,-2.40
2019-01-26T01:12:26.079Z,-2.50
2019-01-26T01:22:31.562Z,-2.50
2019-01-26T01:32:37.030Z,-2.30
2019-01-26T01:42:42.724Z,-2.20
2019-01-26T01:52:48.004Z,-2.20
2019-01-26T02:02:53.301Z,-2.20
2019-01-26T02:12:58.662Z,-2.30
2019-01-26T02:23:04.069Z,-2.30
2019-01-26T02:33:09.392Z,-2.30
2019-01-26T02:43:15.674Z,-2.30
2019-01-26T02:53:21.068Z,-2.20
2019-01-26T03:03:26.401Z,-2.10
2019-01-26T03:13:31.686Z,-2.10
2019-01-26T03:23:36.966Z,-2.10
2019-01-26T03:33:42.239Z,-2.10
2019-01-26T03:43:47.512Z,-2.00
2019-01-26T03:53:52.829Z,-2.20
2019-01-26T04:03:58.377Z,-2.30
2019-01-26T04:14:03.716Z,-2.20
2019-01-26T04:24:08.978Z,-2.10
2019-01-26T04:34:14.395Z,-2.10
2019-01-26T04:44:19.750Z,-2.00
2019-01-26T04:54:24.980Z,-2.10
2019-01-26T05:04:30.283Z,-2.20
2019-01-26T05:14:35.652Z,-2.20
2019-01-26T05:24:41.071Z,-2.10
2019-01-26T05:34:46.370Z,-2.00
2019-01-26T05:44:51.559Z,-1.90
2019-01-26T05:54:56.926Z,-2.00
2019-01-26T06:05:02.355Z,-2.00
2019-01-26T06:15:08.232Z,-2.10
2019-01-26T06:25:14.689Z,-2.20
2019-01-26T06:35:20.569Z,-2.20
2019-01-26T06:45:25.880Z,-2.20
2019-01-26T06:55:31.178Z,-2.20
2019-01-26T07:05:47.610Z,-2.20
2019-01-26T07:15:53.750Z,-2.10
2019-01-26T07:25:59.041Z,-2.10
2019-01-26T07:36:04.373Z,-2.00
2019-01-26T07:46:09.796Z,-1.80
2019-01-26T07:56:15.131Z,-1.90
2019-01-26T08:06:20.645Z,-1.80
2019-01-26T08:16:26.037Z,-1.70
2019-01-26T08:26:31.335Z,-1.90
2019-01-26T08:36:36.815Z,-1.80
2019-01-26T08:46:43.210Z,-1.80
2019-01-26T08:56:48.645Z,-1.50
2019-01-26T09:06:57.646Z,-1.20
2019-01-26T09:17:03.200Z,-1.50
2019-01-26T09:27:08.695Z,-1.10
2019-01-26T09:37:13.958Z,-0.70
2019-01-26T09:47:20.199Z,-0.60
2019-01-26T09:57:25.593Z,-0.70
2019-01-26T10:07:32.677Z,-0.30
2019-01-26T10:17:38.037Z,0.00
2019-01-26T10:27:43.360Z,-0.20
2019-01-26T10:37:48.700Z,-0.10
2019-01-26T10:47:54.414Z,0.40
2019-01-26T10:57:59.768Z,0.40
2019-01-26T11:08:05.147Z,0.70
2019-01-26T11:18:10.594Z,1.00
2019-01-26T11:28:15.956Z,1.10
2019-01-26T11:38:21.323Z,1.20
2019-01-26T11:48:30.084Z,0.80
2019-01-26T11:58:35.466Z,0.80
2019-01-26T12:08:40.992Z,0.60
2019-01-26T12:18:46.652Z,0.60
2019-01-26T12:28:51.963Z,0.40
2019-01-26T12:38:57.365Z,0.70
2019-01-26T12:49:02.631Z,0.30
2019-01-26T12:59:08.933Z,0.30
2019-01-26T13:09:14.227Z,0.50
2019-01-26T13:19:19.769Z,0.40
2019-01-26T13:29:25.189Z,0.40
2019-01-26T13:39:30.563Z,0.40
2019-01-26T13:49:36.128Z,0.70
2019-01-26T13:59:41.578Z,0.70
2019-01-26T14:09:46.938Z,-0.10
2019-01-26T14:19:52.402Z,-0.60
2019-01-26T14:29:57.846Z,-1.10
2019-01-26T14:40:03.275Z,-1.50
2019-01-26T14:50:09.896Z,-1.70
2019-01-26T15:00:18.959Z,-1.70
2019-01-26T15:10:24.565Z,-2.10
2019-01-26T15:20:32.633Z,-2.00
2019-01-26T15:30:42.855Z,-2.10
2019-01-26T15:40:48.319Z,-2.00
2019-01-26T15:50:53.600Z,-2.20
2019-01-26T16:00:58.956Z,-2.30
2019-01-26T16:11:04.533Z,-2.30
2019-01-26T16:21:09.893Z,-2.30
2019-01-26T16:31:15.363Z,-2.50
2019-01-26T16:41:20.758Z,-2.60
2019-01-26T16:51:26.099Z,-2.60
2019-01-26T17:01:31.359Z,-2.40
2019-01-26T17:11:36.605Z,-2.30
2019-01-26T17:21:41.949Z,-2.30
2019-01-26T17:31:47.293Z,-2.50
2019-01-26T17:41:52.565Z,-2.50
2019-01-26T17:51:57.886Z,-2.30
2019-01-26T18:02:03.204Z,-2.10
2019-01-26T18:12:08.508Z,-2.20
2019-01-26T18:22:14.041Z,-2.30
2019-01-26T18:32:20.913Z,-2.20
2019-01-26T18:42:26.335Z,-2.30
2019-01-26T18:52:31.822Z,-2.50
2019-01-26T19:02:38.205Z,-2.80
2019-01-26T19:12:43.643Z,-2.50
2019-01-26T19:22:49.054Z,-2.40
2019-01-26T19:32:54.482Z,-2.60
2019-01-26T19:42:59.874Z,-2.70
2019-01-26T19:53:05.422Z,-2.80
2019-01-26T20:03:10.757Z,-2.90
2019-01-26T20:13:16.000Z,-3.00
2019-01-26T20:23:21.343Z,-2.90
2019-01-26T20:33:26.887Z,-2.70
2019-01-26T20:43:32.254Z,-2.90
2019-01-26T20:53:37.687Z,-3.00
2019-01-26T21:03:44.071Z,-3.20
2019-01-26T21:13:49.476Z,-3.40
2019-01-26T21:23:54.790Z,-3.60
2019-01-26T21:34:00.090Z,-3.70
2019-01-26T21:44:05.792Z,-4.00
2019-01-26T21:54:11.302Z,-4.00
2019-01-26T22:04:16.647Z,-4.20
2019-01-26T22:14:21.988Z,-4.20
2019-01-26T22:24:27.567Z,-4.30
2019-01-26T22:34:32.801Z,-4.40
2019-01-26T22:44:38.157Z,-4.40
2019-01-26T22:54:43.438Z,-4.40
2019-01-26T23:05:18.207Z,-4.40
2019-01-26T23:16:07.989Z,-4.50
2019-01-26T23:26:32.026Z,-4.60
2019-01-26T23:36:37.397Z,-4.40
2019-01-26T23:46:42.691Z,-4.20
2019-01-26T23:56:47.939Z,-4.20
